KCDN/CDN METAR and TAF weather

Enter ICAO airport designator
Station Type Date Time Source
KCDN METAR 2018/07/19 07:15 UTC NOAA

KCDN 190715Z AUTO 00000KT 8SM SCT030 BKN050 BKN090 24/23 A2997 RMK AO2


Station Type Date Time Source
KCDN Decoded METAR 2018/07/19 07:15 UTC NOAA

Station name not available
Jul 19, 2018 - 03:15 AM EDT / 2018.07.19 0715 UTC
Wind: Calm:0
Visibility: 8 mile(s):0
Sky conditions: mostly cloudy
Temperature: 75 F (24 C)
Dew Point: 73 F (23 C)
Relative Humidity: 94%
Pressure (altimeter): 29.97 in. Hg (1014 hPa)
ob: KCDN 190715Z AUTO 00000KT 8SM SCT030 BKN050 BKN090 24/23 A2997 RMK AO2
cycle: 7

Station Type Date Time Source
KCDN TAF UTC NOAA

Error!


Example: see airport list